Time;durP1;ratioP1;P1;durP2;ratioP2;P2;SDS_P1;SDS_P2;PMS_P1;PMS_P2;Temp;Humidity;BMP_temperature;BMP_pressure;BME280_temperature;BME280_humidity;BME280_pressure;Samples;Min_cycle;Max_cycle;Signal;HPM_P1;HPM_P2
2023/07/08 00:00:23;;;;;;;6.50;4.80;;;;;;;19.83;50.41;98171.84;5073270;28;20218;-87
2023/07/08 00:02:50;;;;;;;6.27;5.00;;;;;;;19.80;50.61;98182.06;5072703;28;20254;-87
2023/07/08 00:05:19;;;;;;;6.53;5.17;;;;;;;19.77;50.63;98183.22;5071617;28;20207;-88
2023/07/08 00:07:46;;;;;;;9.20;5.77;;;;;;;19.75;50.47;98171.78;5071667;28;20589;-88
2023/07/08 00:10:18;;;;;;;6.63;4.97;;;;;;;19.74;50.55;98182.69;5071373;28;20207;-88
2023/07/08 00:12:47;;;;;;;7.10;5.30;;;;;;;19.74;50.51;98177.34;5071387;28;20242;-88
2023/07/08 00:15:13;;;;;;;6.30;4.73;;;;;;;19.70;50.85;98166.06;5071773;28;20227;-87
2023/07/08 00:17:40;;;;;;;8.07;5.73;;;;;;;19.65;50.52;98168.41;5071889;28;20204;-87
2023/07/08 00:20:25;;;;;;;6.23;5.10;;;;;;;19.63;50.51;98164.22;5072299;28;20207;-87
2023/07/08 00:22:51;;;;;;;6.77;5.10;;;;;;;19.61;50.38;98150.97;5088130;28;20598;-88
2023/07/08 00:25:19;;;;;;;6.43;5.10;;;;;;;19.60;50.73;98149.28;5083391;28;20271;-86
2023/07/08 00:27:47;;;;;;;7.10;5.47;;;;;;;19.61;51.27;98156.31;5082928;28;20215;-85
2023/07/08 00:30:23;;;;;;;8.33;5.47;;;;;;;19.63;50.31;98143.59;5081086;28;20211;-87
2023/07/08 00:32:53;;;;;;;7.80;5.20;;;;;;;19.64;49.86;98139.91;5071827;28;20227;-87
2023/07/08 00:35:21;;;;;;;7.43;5.70;;;;;;;19.64;50.48;98145.25;5071512;28;20235;-87
2023/07/08 00:37:47;;;;;;;6.37;5.20;;;;;;;19.63;50.35;98143.59;5071612;28;20558;-88
2023/07/08 00:40:17;;;;;;;7.60;5.27;;;;;;;19.61;49.79;98139.38;5071441;28;20207;-86
2023/07/08 00:42:46;;;;;;;6.67;4.93;;;;;;;19.62;50.61;98152.63;5071280;28;20231;-87
2023/07/08 00:45:25;;;;;;;9.00;5.47;;;;;;;19.59;50.25;98152.97;5071319;28;20571;-87
2023/07/08 00:47:53;;;;;;;7.20;5.30;;;;;;;19.60;50.08;98165.38;5071464;28;20563;-88
2023/07/08 00:50:20;;;;;;;6.90;5.17;;;;;;;19.61;49.72;98159.00;5071054;28;20203;-88
2023/07/08 00:52:46;;;;;;;7.73;5.20;;;;;;;19.63;49.06;98165.03;5071245;28;20240;-87
2023/07/08 00:55:13;;;;;;;6.77;5.37;;;;;;;19.65;48.36;98157.69;5071345;28;20567;-90
2023/07/08 00:57:43;;;;;;;7.20;5.50;;;;;;;19.63;48.04;98162.34;5071283;28;20203;-87
2023/07/08 01:00:16;;;;;;;6.47;4.73;;;;;;;19.61;48.41;98163.50;5069522;28;20204;-87
2023/07/08 01:02:49;;;;;;;6.67;5.13;;;;;;;19.57;48.77;98165.69;5068528;28;20239;-87
2023/07/08 01:05:19;;;;;;;6.73;5.33;;;;;;;19.55;49.05;98167.69;5068562;28;20218;-87
2023/07/08 01:07:52;;;;;;;7.83;5.83;;;;;;;19.63;47.79;98154.31;5068584;28;20221;-88
2023/07/08 01:10:23;;;;;;;6.33;5.37;;;;;;;19.65;48.16;98163.06;5070672;28;20215;-88
2023/07/08 01:12:54;;;;;;;6.67;5.50;;;;;;;19.62;48.09;98155.31;5071822;28;20239;-88
2023/07/08 01:15:27;;;;;;;8.13;5.63;;;;;;;19.62;48.11;98151.81;5075075;28;20317;-87
2023/07/08 01:17:55;;;;;;;8.37;6.17;;;;;;;19.56;48.42;98142.56;5075005;28;20218;-87
2023/07/08 01:20:22;;;;;;;8.33;5.90;;;;;;;19.47;50.10;98150.72;5075033;28;20207;-87
2023/07/08 01:22:50;;;;;;;7.63;5.40;;;;;;;19.37;50.65;98155.34;5075256;28;20227;-87
2023/07/08 01:25:16;;;;;;;6.63;4.90;;;;;;;19.27;50.30;98147.44;5074927;28;20211;-87
2023/07/08 01:27:48;;;;;;;6.83;5.13;;;;;;;19.23;49.99;98143.41;5075114;28;20216;-87
2023/07/08 01:30:17;;;;;;;8.63;5.30;;;;;;;19.17;50.42;98157.41;5074785;28;20211;-87
2023/07/08 01:32:49;;;;;;;7.63;5.57;;;;;;;19.13;50.64;98163.25;5075127;28;20227;-87
2023/07/08 01:35:16;;;;;;;6.73;5.10;;;;;;;19.05;51.34;98168.53;5075048;28;20242;-87
2023/07/08 01:37:48;;;;;;;7.87;5.17;;;;;;;19.01;51.04;98160.00;5075070;28;20222;-87
2023/07/08 01:40:25;;;;;;;6.57;5.43;;;;;;;18.97;50.49;98155.94;5075066;28;20211;-87
2023/07/08 01:42:52;;;;;;;9.30;5.53;;;;;;;18.92;50.67;98147.56;5074651;28;20227;-87
2023/07/08 01:45:22;;;;;;;7.67;5.87;;;;;;;18.91;50.65;98155.75;5074856;28;20231;-87
2023/07/08 01:47:52;;;;;;;7.50;5.67;;;;;;;18.88;51.16;98151.53;5075049;28;20233;-87
2023/07/08 01:50:20;;;;;;;9.93;5.90;;;;;;;18.88;50.88;98145.31;5074620;28;20278;-87
2023/07/08 01:52:48;;;;;;;7.80;5.50;;;;;;;18.82;51.46;98152.16;5074318;28;20717;-87
2023/07/08 01:55:14;;;;;;;6.47;5.17;;;;;;;18.77;52.16;98159.81;5074492;28;20239;-87
2023/07/08 01:57:43;;;;;;;7.33;5.50;;;;;;;18.68;52.70;98166.13;5074640;28;20211;-87
2023/07/08 02:00:10;;;;;;;7.30;5.73;;;;;;;18.59;53.61;98172.38;5074423;28;20207;-87
2023/07/08 02:02:37;;;;;;;8.07;5.67;;;;;;;18.51;53.83;98168.78;5074705;28;20239;-87
2023/07/08 02:05:04;;;;;;;7.57;5.60;;;;;;;18.42;54.35;98170.56;5074318;28;20210;-87
2023/07/08 02:07:30;;;;;;;9.80;5.53;;;;;;;18.35;54.87;98174.03;5074402;28;20647;-87
2023/07/08 02:09:57;;;;;;;7.37;5.53;;;;;;;18.27;55.48;98176.56;5074041;28;20223;-88
2023/07/08 02:12:23;;;;;;;7.93;5.77;;;;;;;18.23;55.32;98170.69;5074432;28;20242;-88
2023/07/08 02:14:51;;;;;;;7.43;5.53;;;;;;;18.23;54.35;98162.66;5074458;28;20223;-88
2023/07/08 02:17:18;;;;;;;7.37;5.53;;;;;;;18.23;54.35;98168.00;5074216;28;20681;-88
2023/07/08 02:19:44;;;;;;;7.40;5.50;;;;;;;18.18;54.59;98162.31;5074129;28;20234;-88
2023/07/08 02:22:11;;;;;;;6.70;5.27;;;;;;;18.14;55.34;98171.59;5073994;28;20235;-87
2023/07/08 02:24:37;;;;;;;6.73;5.37;;;;;;;18.09;55.65;98179.25;5073345;28;20229;-88
2023/07/08 02:27:04;;;;;;;6.97;5.00;;;;;;;18.07;56.23;98181.25;5073947;28;20214;-88
2023/07/08 02:29:32;;;;;;;6.63;5.30;;;;;;;18.04;56.34;98186.88;5073665;28;20207;-88
2023/07/08 02:32:00;;;;;;;6.50;5.27;;;;;;;18.04;56.56;98181.53;5073854;28;20233;-87
2023/07/08 02:34:26;;;;;;;7.30;5.57;;;;;;;18.06;56.54;98190.25;5073450;28;20600;-87
2023/07/08 02:36:52;;;;;;;6.53;5.17;;;;;;;18.06;56.25;98179.56;5073547;28;20208;-87
2023/07/08 02:39:19;;;;;;;6.87;5.30;;;;;;;18.06;56.28;98182.25;5073356;28;20220;-87
2023/07/08 02:41:45;;;;;;;8.13;5.70;;;;;;;18.11;56.16;98177.25;5073499;28;20204;-86
2023/07/08 02:44:12;;;;;;;6.93;5.23;;;;;;;18.12;56.44;98184.31;5073607;28;20211;-87
2023/07/08 02:46:38;;;;;;;8.00;5.83;;;;;;;18.17;56.24;98186.53;5073519;28;20215;-87
2023/07/08 02:49:06;;;;;;;6.53;5.27;;;;;;;18.15;56.06;98186.66;5073145;28;20214;-87
2023/07/08 02:51:33;;;;;;;6.83;5.17;;;;;;;18.16;56.26;98180.31;5073212;28;20221;-87
2023/07/08 02:54:00;;;;;;;7.60;5.60;;;;;;;18.20;55.71;98186.19;5073287;28;20228;-82
2023/07/08 02:56:26;;;;;;;6.40;5.33;;;;;;;18.23;55.56;98186.72;5073271;28;20234;-84
2023/07/08 02:58:53;;;;;;;7.57;5.47;;;;;;;18.24;55.26;98187.59;5073111;28;20207;-84
2023/07/08 03:01:20;;;;;;;7.33;5.30;;;;;;;18.27;55.15;98181.91;5072929;28;20210;-84
2023/07/08 03:03:47;;;;;;;6.73;5.30;;;;;;;18.31;54.35;98181.53;5073049;28;20238;-83
2023/07/08 03:06:15;;;;;;;8.00;6.17;;;;;;;18.35;53.96;98187.41;5072820;28;20214;-84
2023/07/08 03:08:41;;;;;;;6.97;5.50;;;;;;;18.35;54.42;98198.09;5073227;28;20219;-84
2023/07/08 03:11:09;;;;;;;7.97;5.57;;;;;;;18.35;54.31;98206.97;5072891;28;20280;-84
2023/07/08 03:13:35;;;;;;;7.70;5.37;;;;;;;18.35;55.17;98217.66;5087761;22;20578;-80
2023/07/08 03:16:08;;;;;;;7.43;5.47;;;;;;;18.35;56.11;98223.00;5072775;28;20239;-82
2023/07/08 03:18:45;;;;;;;7.13;5.17;;;;;;;18.37;56.66;98229.06;5072704;28;20207;-81
2023/07/08 03:21:13;;;;;;;7.90;6.10;;;;;;;18.43;55.94;98225.78;5072543;28;20638;-81
2023/07/08 03:23:41;;;;;;;7.97;5.93;;;;;;;18.49;55.59;98214.47;5073359;28;20231;-81
2023/07/08 03:26:08;;;;;;;8.97;5.63;;;;;;;18.48;55.71;98204.75;5072865;28;20693;-80
2023/07/08 03:28:34;;;;;;;7.13;5.40;;;;;;;18.45;56.01;98212.22;5072507;28;20207;-81
2023/07/08 03:31:01;;;;;;;8.17;6.00;;;;;;;18.41;56.75;98225.09;5072040;28;20670;-81
2023/07/08 03:33:27;;;;;;;8.17;6.30;;;;;;;18.44;56.49;98230.16;5072605;28;20238;-81
2023/07/08 03:35:55;;;;;;;8.70;6.10;;;;;;;18.47;55.97;98224.47;5072049;28;20234;-80
2023/07/08 03:38:21;;;;;;;8.77;6.07;;;;;;;18.53;55.91;98210.47;5071916;28;20212;-81
2023/07/08 03:40:50;;;;;;;7.83;5.70;;;;;;;18.50;56.02;98207.28;5072209;28;20207;-80
2023/07/08 03:43:16;;;;;;;7.80;5.83;;;;;;;18.48;56.42;98230.69;5072242;28;20284;-81
2023/07/08 03:45:43;;;;;;;8.30;6.10;;;;;;;18.46;57.52;98228.16;5072283;28;20214;-82
2023/07/08 03:48:10;;;;;;;7.63;6.00;;;;;;;18.48;56.95;98207.41;5072391;28;20209;-80
2023/07/08 03:50:37;;;;;;;7.90;6.00;;;;;;;18.51;56.38;98195.56;5072013;28;20200;-81
2023/07/08 03:53:03;;;;;;;9.77;6.70;;;;;;;18.62;56.32;98208.72;5071982;28;20705;-82
2023/07/08 03:55:30;;;;;;;7.80;6.03;;;;;;;18.50;57.47;98220.66;5071921;28;20561;-81
2023/07/08 03:57:58;;;;;;;8.27;6.00;;;;;;;18.30;59.31;98233.28;5071939;28;20215;-81
2023/07/08 04:00:24;;;;;;;8.70;6.60;;;;;;;18.19;59.98;98233.53;5071477;28;20215;-79
2023/07/08 04:02:51;;;;;;;9.17;6.33;;;;;;;18.08;60.70;98236.41;5071467;28;20227;-80
2023/07/08 04:05:20;;;;;;;8.20;6.30;;;;;;;18.05;60.67;98242.03;5071885;28;20208;-80
2023/07/08 04:07:46;;;;;;;7.80;5.80;;;;;;;18.07;61.39;98242.75;5071898;28;20207;-80
2023/07/08 04:10:13;;;;;;;7.73;5.77;;;;;;;18.14;60.32;98229.59;5071605;28;20211;-80
2023/07/08 04:12:40;;;;;;;8.67;6.30;;;;;;;18.17;59.94;98232.81;5071429;28;20618;-81
2023/07/08 04:15:11;;;;;;;7.33;5.97;;;;;;;18.24;59.45;98233.06;5071812;28;20212;-81
2023/07/08 04:17:41;;;;;;;7.13;5.37;;;;;;;18.31;60.19;98232.34;5071810;28;20215;-82
2023/07/08 04:20:10;;;;;;;9.57;6.37;;;;;;;18.36;60.48;98230.03;5071262;28;20222;-80
2023/07/08 04:22:37;;;;;;;8.03;6.10;;;;;;;18.42;59.80;98229.44;5071726;28;20227;-81
2023/07/08 04:25:05;;;;;;;8.07;6.10;;;;;;;18.47;59.67;98227.16;5071575;28;20208;-80
2023/07/08 04:27:32;;;;;;;7.40;5.50;;;;;;;18.50;60.48;98221.50;5071466;28;20207;-81
2023/07/08 04:29:59;;;;;;;8.30;6.27;;;;;;;18.55;61.45;98226.41;5071389;28;20211;-81
2023/07/08 04:32:27;;;;;;;6.53;5.43;;;;;;;18.55;62.99;98224.56;5071556;28;20586;-80
2023/07/08 04:34:53;;;;;;;8.13;6.40;;;;;;;18.65;65.84;98230.66;5071458;28;20218;-80
2023/07/08 04:37:20;;;;;;;8.20;6.10;;;;;;;18.67;65.84;98223.34;5071401;28;20222;-81
2023/07/08 04:39:47;;;;;;;7.50;5.87;;;;;;;18.74;65.55;98227.09;5071260;28;20674;-82
2023/07/08 04:42:15;;;;;;;7.73;5.70;;;;;;;18.85;65.43;98224.16;5071258;28;20712;-81
2023/07/08 04:44:41;;;;;;;7.63;5.97;;;;;;;19.00;65.29;98219.91;5071508;28;20203;-80
2023/07/08 04:47:09;;;;;;;7.83;5.80;;;;;;;19.14;64.43;98216.66;5071623;28;20203;-82
2023/07/08 04:49:37;;;;;;;9.00;6.27;;;;;;;19.34;60.51;98212.84;5070631;28;20743;-80
2023/07/08 04:52:04;;;;;;;8.23;6.20;;;;;;;19.46;59.47;98192.81;5071338;28;20203;-81
2023/07/08 04:54:30;;;;;;;7.23;6.03;;;;;;;19.55;57.99;98194.50;5070987;28;20231;-81
2023/07/08 04:56:57;;;;;;;8.40;6.00;;;;;;;19.72;57.43;98196.25;5071150;28;20231;-80
2023/07/08 04:59:25;;;;;;;8.20;5.77;;;;;;;19.95;55.59;98186.63;5070798;28;20627;-79
2023/07/08 05:01:53;;;;;;;7.97;5.57;;;;;;;20.16;54.70;98187.06;5071234;28;20207;-80
2023/07/08 05:04:21;;;;;;;11.83;5.77;;;;;;;20.35;54.93;98194.81;5071060;28;20224;-80
2023/07/08 05:06:50;;;;;;;8.07;5.63;;;;;;;20.45;54.96;98197.34;5071241;28;20203;-81
2023/07/08 05:09:16;;;;;;;6.80;5.40;;;;;;;20.47;54.59;98193.47;5070816;28;20211;-84
2023/07/08 05:11:43;;;;;;;7.80;5.20;;;;;;;20.48;54.10;98195.16;5071922;28;20214;-81
2023/07/08 05:14:09;;;;;;;6.63;5.37;;;;;;;20.45;54.46;98195.50;5070808;28;20743;-80
2023/07/08 05:16:36;;;;;;;6.90;5.40;;;;;;;20.42;54.85;98197.69;5070984;28;20254;-79
2023/07/08 05:19:03;;;;;;;7.33;5.63;;;;;;;20.48;55.29;98205.91;5070857;28;20650;-79
2023/07/08 05:21:33;;;;;;;7.70;5.80;;;;;;;20.51;55.40;98210.94;5070809;28;20211;-79
2023/07/08 05:24:01;;;;;;;7.23;5.43;;;;;;;20.64;55.46;98205.94;5071045;28;20231;-79
2023/07/08 05:26:28;;;;;;;7.43;5.80;;;;;;;21.11;54.05;98208.81;5071176;28;20203;-78
2023/07/08 05:28:54;;;;;;;7.43;5.90;;;;;;;21.72;53.11;98207.19;5071170;28;20210;-77
2023/07/08 05:31:21;;;;;;;7.53;5.83;;;;;;;22.50;49.79;98189.97;5070851;28;20559;-79
2023/07/08 05:33:47;;;;;;;7.80;5.67;;;;;;;23.33;49.13;98205.13;5070723;28;20253;-78
2023/07/08 05:36:14;;;;;;;9.37;6.13;;;;;;;23.80;46.67;98192.13;5070596;28;20228;-80
2023/07/08 05:38:40;;;;;;;8.77;6.30;;;;;;;23.64;46.14;98208.50;5070829;28;20207;-81
2023/07/08 05:41:08;;;;;;;6.93;5.80;;;;;;;23.26;47.89;98209.59;5069998;28;20682;-81
2023/07/08 05:43:35;;;;;;;6.93;5.67;;;;;;;23.00;48.93;98198.34;5070676;28;20227;-80
2023/07/08 05:46:02;;;;;;;7.70;6.03;;;;;;;22.78;48.16;98190.25;5070585;28;20211;-79
2023/07/08 05:48:29;;;;;;;8.03;5.90;;;;;;;22.44;49.83;98206.84;5070563;28;20207;-78
2023/07/08 05:50:56;;;;;;;8.23;6.37;;;;;;;22.25;51.15;98233.38;5068929;28;20219;-81
2023/07/08 05:53:23;;;;;;;8.30;6.30;;;;;;;22.20;50.87;98241.13;5069207;28;20223;-79
2023/07/08 05:55:50;;;;;;;8.60;6.07;;;;;;;22.10;51.38;98243.19;5070564;28;20227;-80
2023/07/08 05:58:18;;;;;;;7.63;5.90;;;;;;;22.00;51.64;98234.50;5070821;28;20204;-79
2023/07/08 06:00:45;;;;;;;8.50;6.27;;;;;;;21.91;52.12;98236.38;5072387;28;20666;-76
2023/07/08 06:03:12;;;;;;;6.97;6.27;;;;;;;21.86;52.95;98243.28;5073770;28;20242;-78
2023/07/08 06:05:39;;;;;;;7.23;5.53;;;;;;;21.89;53.19;98243.78;5074108;28;20203;-77
2023/07/08 06:08:07;;;;;;;7.57;6.20;;;;;;;22.40;52.97;98253.97;5074191;28;20208;-78
2023/07/08 06:10:34;;;;;;;7.30;5.77;;;;;;;23.45;50.12;98236.03;5073879;28;20302;-78
2023/07/08 06:13:00;;;;;;;8.37;6.03;;;;;;;24.52;46.51;98211.97;5073711;28;20756;-78
2023/07/08 06:15:28;;;;;;;8.37;6.10;;;;;;;25.42;45.15;98217.44;5073726;28;20218;-79
2023/07/08 06:17:55;;;;;;;7.63;6.25;;;;;;;26.06;44.01;98210.81;5073677;28;20238;-82
2023/07/08 06:20:21;;;;;;;6.68;5.47;;;;;;;26.72;43.34;98207.31;5073995;28;20233;-81
2023/07/08 06:22:47;;;;;;;7.18;5.47;;;;;;;27.28;41.53;98200.50;5074268;28;20232;-78
2023/07/08 06:25:14;;;;;;;8.13;6.05;;;;;;;27.77;41.57;98211.78;5074244;28;20203;-85
2023/07/08 06:27:41;;;;;;;8.70;6.28;;;;;;;28.24;40.75;98204.09;5073973;28;20218;-86
2023/07/08 06:30:08;;;;;;;9.18;6.25;;;;;;;28.51;39.92;98199.41;5073787;28;20207;-85
2023/07/08 06:32:36;;;;;;;8.65;6.70;;;;;;;28.74;38.67;98195.06;5074032;28;20231;-86
2023/07/08 06:35:03;;;;;;;9.20;5.80;;;;;;;29.04;38.38;98189.91;5074410;28;20226;-84
2023/07/08 06:37:29;;;;;;;9.25;6.18;;;;;;;29.24;37.39;98185.13;5074023;28;20622;-85
2023/07/08 06:39:56;;;;;;;7.38;6.40;;;;;;;29.33;37.52;98184.63;5073564;28;20387;-85
2023/07/08 06:42:22;;;;;;;7.35;5.90;;;;;;;29.34;37.91;98185.47;5073367;28;20212;-85
2023/07/08 06:44:50;;;;;;;8.02;6.30;;;;;;;29.13;38.33;98194.84;5073480;28;20218;-85
2023/07/08 06:47:19;;;;;;;7.13;6.03;;;;;;;29.30;37.54;98200.56;5073695;28;20204;-85
2023/07/08 06:49:47;;;;;;;7.65;6.05;;;;;;;29.35;36.65;98198.00;5073387;28;20696;-85
2023/07/08 06:52:14;;;;;;;8.38;6.25;;;;;;;29.64;36.53;98197.38;5073696;28;20211;-85
2023/07/08 06:54:41;;;;;;;7.35;6.25;;;;;;;29.85;36.20;98200.50;5073394;28;20207;-85
2023/07/08 06:57:07;;;;;;;11.13;6.68;;;;;;;29.72;36.30;98200.59;5073353;28;20246;-89
2023/07/08 06:59:34;;;;;;;7.95;5.85;;;;;;;29.57;36.89;98212.91;5072781;28;20207;-80
2023/07/08 07:02:01;;;;;;;8.95;6.00;;;;;;;29.47;36.51;98207.13;5073116;28;20218;-76
2023/07/08 07:04:30;;;;;;;7.35;5.80;;;;;;;29.42;36.45;98209.69;5072740;28;20223;-75
2023/07/08 07:06:58;;;;;;;8.10;5.97;;;;;;;29.21;36.94;98210.91;5072863;28;20226;-75
2023/07/08 07:09:25;;;;;;;6.57;5.30;;;;;;;28.93;38.04;98228.66;5072717;28;20222;-76
2023/07/08 07:11:51;;;;;;;6.07;5.30;;;;;;;28.30;37.85;98214.09;5072607;28;20559;-76
2023/07/08 07:14:18;;;;;;;5.95;4.57;;;;;;;27.94;39.25;98223.84;5072530;28;20242;-77
2023/07/08 07:16:44;;;;;;;5.07;4.28;;;;;;;27.62;39.29;98233.69;5072500;28;20239;-75
2023/07/08 07:19:10;;;;;;;6.78;4.78;;;;;;;27.42;39.59;98226.59;5072378;28;20558;-76
2023/07/08 07:21:37;;;;;;;6.95;4.65;;;;;;;27.26;40.26;98239.75;5071906;28;20207;-75
2023/07/08 07:24:06;;;;;;;4.82;3.90;;;;;;;27.16;40.63;98244.75;5069641;28;20231;-76
2023/07/08 07:26:33;;;;;;;7.20;4.93;;;;;;;27.11;40.92;98253.50;5069378;28;20629;-76
2023/07/08 07:29:00;;;;;;;7.03;4.53;;;;;;;27.07;39.72;98229.69;5069839;28;20204;-76
2023/07/08 07:31:26;;;;;;;8.32;5.28;;;;;;;26.97;40.11;98223.84;5071675;28;20215;-76
2023/07/08 07:33:53;;;;;;;5.70;4.53;;;;;;;26.87;39.74;98218.81;5072236;28;20231;-76
2023/07/08 07:36:19;;;;;;;6.57;5.38;;;;;;;26.70;40.43;98232.97;5070006;28;20227;-76
2023/07/08 07:38:46;;;;;;;6.28;5.10;;;;;;;26.55;40.65;98235.84;5069455;28;20219;-76
2023/07/08 07:41:14;;;;;;;6.88;5.00;;;;;;;26.48;40.56;98244.94;5069164;28;20207;-76
2023/07/08 07:43:41;;;;;;;6.05;4.93;;;;;;;26.48;41.00;98251.22;5070259;28;20374;-76
2023/07/08 07:46:07;;;;;;;5.13;4.40;;;;;;;26.37;41.67;98259.06;5072135;28;20217;-76
2023/07/08 07:48:34;;;;;;;6.45;5.05;;;;;;;26.33;41.80;98258.66;5071469;28;20211;-76
2023/07/08 07:51:01;;;;;;;6.30;4.72;;;;;;;26.51;40.46;98244.56;5068999;28;20218;-76
2023/07/08 07:53:27;;;;;;;7.00;4.68;;;;;;;26.57;40.32;98244.59;5069165;28;20243;-76
2023/07/08 07:55:58;;;;;;;7.93;4.72;;;;;;;26.65;40.38;98243.59;5069301;28;20211;-76
2023/07/08 07:58:26;;;;;;;7.47;4.95;;;;;;;26.77;40.98;98253.63;5071490;28;20221;-78
2023/07/08 08:00:52;;;;;;;6.78;4.68;;;;;;;26.85;40.21;98242.59;5071455;28;20203;-77
2023/07/08 08:03:20;;;;;;;6.75;4.78;;;;;;;26.89;40.13;98248.44;5069558;28;20262;-76
2023/07/08 08:05:47;;;;;;;6.82;4.80;;;;;;;26.99;39.97;98257.84;5069147;28;20212;-75
2023/07/08 08:08:13;;;;;;;6.78;5.05;;;;;;;27.19;40.15;98249.78;5068864;28;20207;-73
2023/07/08 08:10:40;;;;;;;6.93;4.90;;;;;;;27.36;40.18;98254.59;5069742;28;20219;-75
2023/07/08 08:13:07;;;;;;;6.47;5.13;;;;;;;27.39;39.94;98248.75;5071330;28;20352;-75
2023/07/08 08:15:35;;;;;;;9.82;6.00;;;;;;;27.56;40.04;98253.53;5070863;28;20368;-76
2023/07/08 08:18:02;;;;;;;5.47;4.68;;;;;;;27.68;39.82;98256.44;5068726;28;20223;-74
2023/07/08 08:20:29;;;;;;;7.68;4.97;;;;;;;27.66;39.26;98243.09;5070932;28;20218;-75
2023/07/08 08:22:56;;;;;;;8.15;5.10;;;;;;;27.78;39.43;98251.47;5076329;28;20231;-75
2023/07/08 08:25:24;;;;;;;6.55;5.15;;;;;;;27.89;38.94;98248.09;5077373;28;20213;-74
2023/07/08 08:27:52;;;;;;;7.00;5.63;;;;;;;27.88;39.06;98243.72;5076458;28;20223;-75
2023/07/08 08:30:19;;;;;;;7.78;5.30;;;;;;;27.99;38.54;98243.03;5076054;28;20666;-77
2023/07/08 08:32:46;;;;;;;8.55;5.20;;;;;;;28.01;39.39;98254.56;5068606;28;20227;-74
2023/07/08 08:35:13;;;;;;;6.45;5.28;;;;;;;27.99;38.88;98248.47;5068455;28;20680;-75
2023/07/08 08:37:39;;;;;;;10.15;5.28;;;;;;;28.11;39.03;98247.63;5069507;28;20231;-73
2023/07/08 08:40:11;;;;;;;8.20;5.28;;;;;;;28.22;38.37;98252.41;5070934;28;20704;-75
2023/07/08 08:42:42;;;;;;;8.18;5.30;;;;;;;28.34;38.16;98245.25;5070124;28;20228;-74
2023/07/08 08:45:14;;;;;;;5.22;4.47;;;;;;;28.45;37.30;98228.31;5068793;28;20211;-73
2023/07/08 08:47:44;;;;;;;7.32;4.30;;;;;;;28.50;37.21;98230.38;5068238;28;20223;-77
2023/07/08 08:50:26;;;;;;;5.65;4.38;;;;;;;28.47;37.21;98236.22;5068787;28;20584;-74
2023/07/08 08:52:55;;;;;;;7.70;4.80;;;;;;;28.28;37.13;98235.25;5071022;28;20737;-74
2023/07/08 08:55:23;;;;;;;6.68;4.60;;;;;;;28.43;37.56;98240.44;5071016;28;20243;-74
2023/07/08 08:58:00;;;;;;;5.68;4.38;;;;;;;28.37;37.92;98246.75;5068176;28;20689;-75
2023/07/08 09:00:45;;;;;;;4.10;3.33;;;;;;;28.58;38.20;98255.44;5067738;28;20211;-74
2023/07/08 09:03:16;;;;;;;5.05;3.67;;;;;;;28.68;37.25;98244.91;5068417;28;20227;-75
2023/07/08 09:05:46;;;;;;;4.55;3.67;;;;;;;28.79;37.46;98259.72;5070927;28;20203;-76
2023/07/08 09:08:17;;;;;;;6.30;3.58;;;;;;;28.87;37.64;98254.84;5070966;28;20218;-75
2023/07/08 09:10:48;;;;;;;5.30;3.50;;;;;;;28.78;36.79;98239.84;5068254;28;20230;-78
2023/07/08 09:13:22;;;;;;;5.20;3.80;;;;;;;28.89;37.11;98244.59;5083644;22;20293;-79
2023/07/08 09:15:54;;;;;;;7.43;4.45;;;;;;;29.10;35.79;98233.38;5068701;28;20207;-78
2023/07/08 09:18:26;;;;;;;5.47;4.45;;;;;;;29.06;36.19;98236.75;5069593;28;20613;-83
2023/07/08 09:20:57;;;;;;;5.13;3.97;;;;;;;29.29;36.11;98242.47;5071030;28;20210;-83
2023/07/08 09:23:29;;;;;;;4.95;4.32;;;;;;;29.20;36.98;98251.94;5069203;28;20235;-83
2023/07/08 09:26:02;;;;;;;5.90;4.05;;;;;;;29.27;37.45;98252.72;5068413;28;20215;-83
2023/07/08 09:28:39;;;;;;;6.45;4.03;;;;;;;29.37;37.15;98253.06;5068270;28;20207;-83
2023/07/08 09:31:08;;;;;;;5.30;4.15;;;;;;;29.51;35.70;98241.84;5068820;28;20210;-83
2023/07/08 09:33:38;;;;;;;5.70;3.92;;;;;;;29.66;36.27;98249.72;5071053;28;20587;-83
2023/07/08 09:36:18;;;;;;;5.38;3.92;;;;;;;29.95;34.75;98232.69;5073394;28;20738;-83
2023/07/08 09:38:49;;;;;;;5.20;3.70;;;;;;;29.97;35.26;98239.56;5072365;28;20207;-83
2023/07/08 09:41:29;;;;;;;3.55;2.15;;;;;;;30.02;34.80;98222.53;5072189;28;20208;-81
2023/07/08 09:44:13;;;;;;;2.30;1.73;;;;;;;30.15;34.50;98227.88;5072731;28;20246;-82
2023/07/08 09:46:40;;;;;;;2.47;1.50;;;;;;;30.29;34.52;98226.63;5075686;28;20207;-81
2023/07/08 09:49:19;;;;;;;3.15;1.80;;;;;;;30.27;33.78;98226.88;5074277;28;20211;-81
2023/07/08 09:51:48;;;;;;;4.45;1.92;;;;;;;30.28;33.96;98227.72;5071869;28;20207;-80
2023/07/08 09:54:15;;;;;;;2.72;1.67;;;;;;;30.26;33.90;98232.56;5071354;28;20287;-81
2023/07/08 09:56:55;;;;;;;2.90;2.13;;;;;;;30.29;33.47;98229.38;5071208;28;20227;-82
2023/07/08 09:59:27;;;;;;;2.40;1.80;;;;;;;30.32;33.76;98231.66;5073797;28;20707;-79
2023/07/08 10:01:55;;;;;;;4.70;2.50;;;;;;;30.33;33.21;98230.59;5074300;28;20219;-82
2023/07/08 10:04:22;;;;;;;2.70;1.77;;;;;;;30.31;33.29;98224.53;5074077;28;20227;-81
2023/07/08 10:06:53;;;;;;;2.25;1.85;;;;;;;30.22;33.19;98217.72;5074365;28;20685;-83
2023/07/08 10:09:21;;;;;;;3.17;2.10;;;;;;;30.33;33.68;98212.31;5074498;28;20215;-83
2023/07/08 10:11:52;;;;;;;2.53;2.00;;;;;;;30.24;33.36;98210.97;5074476;28;20214;-82
2023/07/08 10:14:26;;;;;;;2.95;1.90;;;;;;;30.30;34.31;98217.41;5073902;28;20241;-83
2023/07/08 10:16:53;;;;;;;2.75;2.00;;;;;;;30.45;34.71;98224.13;5073685;28;20231;-82
2023/07/08 10:19:21;;;;;;;2.58;2.10;;;;;;;30.69;33.95;98216.94;5073604;28;20214;-82
2023/07/08 10:21:56;;;;;;;3.13;2.42;;;;;;;30.86;35.42;98235.16;5074289;28;20708;-83
2023/07/08 10:24:38;;;;;;;4.10;2.40;;;;;;;30.97;34.91;98236.25;5074089;28;20237;-82
2023/07/08 10:27:12;;;;;;;3.47;2.40;;;;;;;31.09;35.27;98231.66;5074020;28;20278;-82
2023/07/08 10:29:48;;;;;;;3.67;2.90;;;;;;;31.17;34.56;98223.16;5073661;28;20210;-82
2023/07/08 10:32:25;;;;;;;5.13;2.90;;;;;;;31.13;34.05;98230.13;5074044;28;20583;-84
2023/07/08 10:35:02;;;;;;;2.97;2.30;;;;;;;31.09;34.27;98223.47;5073944;28;20230;-82
2023/07/08 10:37:39;;;;;;;3.17;2.50;;;;;;;30.97;34.72;98230.78;5074001;28;20226;-82
2023/07/08 10:40:22;;;;;;;3.40;2.70;;;;;;;30.84;35.15;98233.72;5073668;28;20214;-83
2023/07/08 10:43:00;;;;;;;3.28;2.67;;;;;;;30.62;35.44;98235.25;5073414;28;20211;-82
2023/07/08 10:45:33;;;;;;;4.40;3.35;;;;;;;30.60;36.08;98242.81;5073108;28;20207;-81
2023/07/08 10:48:17;;;;;;;4.15;3.28;;;;;;;30.44;35.97;98243.47;5073990;28;20210;-84
2023/07/08 10:50:58;;;;;;;4.20;3.67;;;;;;;30.30;37.16;98258.31;5073433;28;20218;-82
2023/07/08 10:53:44;;;;;;;5.55;3.83;;;;;;;30.37;37.48;98264.53;5072042;28;20639;-82
2023/07/08 10:56:16;;;;;;;4.55;3.70;;;;;;;30.64;36.58;98249.53;5070362;28;20207;-83
2023/07/08 10:59:13;;;;;;;5.07;3.70;;;;;;;30.86;36.65;98250.72;5070775;28;20318;-82
2023/07/08 11:01:50;;;;;;;4.40;3.70;;;;;;;30.93;36.14;98257.72;5071503;28;20238;-81
2023/07/08 11:04:46;;;;;;;8.10;3.70;;;;;;;30.98;36.04;98246.13;5073411;28;20258;-81
2023/07/08 11:07:23;;;;;;;3.70;3.30;;;;;;;31.05;35.58;98244.13;5071524;28;20218;-77
2023/07/08 11:09:57;;;;;;;5.10;3.65;;;;;;;31.02;35.83;98242.69;5073339;28;20211;-82
2023/07/08 11:12:29;;;;;;;4.05;3.00;;;;;;;31.04;35.56;98234.25;5073526;28;20215;-82
2023/07/08 11:15:02;;;;;;;4.13;3.17;;;;;;;31.04;35.23;98228.78;5073268;28;20235;-82
2023/07/08 11:17:34;;;;;;;4.40;3.10;;;;;;;31.04;35.86;98243.28;5073783;28;20227;-83
2023/07/08 11:20:14;;;;;;;4.75;2.90;;;;;;;31.04;35.27;98239.72;5073193;28;20215;-81
2023/07/08 11:22:46;;;;;;;4.20;3.00;;;;;;;30.97;34.78;98228.91;5073669;28;20299;-82
2023/07/08 11:25:20;;;;;;;4.30;2.83;;;;;;;31.01;35.24;98232.84;5073173;28;20207;-82
2023/07/08 11:27:50;;;;;;;5.28;3.25;;;;;;;31.03;34.84;98227.13;5073147;28;20226;-82
2023/07/08 11:30:21;;;;;;;3.38;2.92;;;;;;;31.11;35.09;98229.56;5072588;28;20203;-82
2023/07/08 11:32:55;;;;;;;4.28;2.90;;;;;;;31.23;34.70;98233.19;5073083;28;20207;-82
2023/07/08 11:35:29;;;;;;;4.60;3.13;;;;;;;31.24;33.91;98223.91;5073158;28;20253;-81
2023/07/08 11:37:56;;;;;;;5.88;2.72;;;;;;;31.14;34.69;98220.88;5073067;28;20226;-81
2023/07/08 11:40:25;;;;;;;4.50;3.08;;;;;;;31.19;34.71;98221.03;5072690;28;20214;-81
2023/07/08 11:42:53;;;;;;;4.28;2.72;;;;;;;31.15;35.15;98230.72;5072797;28;20250;-82